createdAt,value
2022-08-04T00:13:27.567Z,23.1
2022-08-04T00:27:27.566Z,22.9
2022-08-04T00:39:42.610Z,24.3
2022-08-04T00:53:49.510Z,24.7
2022-08-04T01:07:43.449Z,24.2
2022-08-04T01:21:43.589Z,23.8
2022-08-04T01:35:46.522Z,23.7
2022-08-04T01:49:43.686Z,23.2
2022-08-04T02:04:17.984Z,23.3
2022-08-04T02:17:43.840Z,22.8
2022-08-04T02:31:43.907Z,22.5
2022-08-04T02:45:43.841Z,22.4
2022-08-04T02:59:43.885Z,21.8
2022-08-04T03:13:43.894Z,21.1
2022-08-04T03:27:43.896Z,21.3
2022-08-04T03:41:52.014Z,21.1
2022-08-04T03:56:43.877Z,21.2
2022-08-04T04:11:54.388Z,21.1
2022-08-04T04:26:43.888Z,21.6
2022-08-04T04:41:43.894Z,22.1
2022-08-04T04:56:43.897Z,21.8
2022-08-04T05:11:43.890Z,21.8
2022-08-04T05:26:43.908Z,22.0
2022-08-04T05:41:45.041Z,22.6
2022-08-04T05:49:30.647Z,23.0
2022-08-04T06:04:30.621Z,23.6
2022-08-04T06:19:58.376Z,23.8
2022-08-04T06:34:30.970Z,29.0
2022-08-04T06:49:31.110Z,32.5
2022-08-04T07:04:31.158Z,32.2
2022-08-04T07:19:31.139Z,31.4
2022-08-04T07:24:33.833Z,31.6
2022-08-04T07:39:33.996Z,32.3
2022-08-04T07:54:34.123Z,31.2
2022-08-04T08:09:34.118Z,32.3
2022-08-04T08:24:34.206Z,34.1
2022-08-04T08:39:34.321Z,34.6
2022-08-04T08:54:34.403Z,34.0
2022-08-04T09:09:34.458Z,34.5
2022-08-04T09:24:34.686Z,35.2
2022-08-04T09:39:34.625Z,35.1
2022-08-04T09:54:34.646Z,35.5
2022-08-04T10:10:34.648Z,34.8
2022-08-04T10:26:34.667Z,35.0
2022-08-04T10:42:34.687Z,35.3
2022-08-04T10:58:46.857Z,36.3
2022-08-04T11:14:34.876Z,36.4
2022-08-04T11:29:34.880Z,36.5
2022-08-04T11:45:34.908Z,36.3
2022-08-04T12:00:34.920Z,36.1
2022-08-04T12:16:34.909Z,36.2
2022-08-04T12:31:34.876Z,36.3
2022-08-04T12:46:34.896Z,37.1
2022-08-04T13:02:05.933Z,37.2
2022-08-04T13:16:34.898Z,37.7
2022-08-04T13:31:35.434Z,38.0
2022-08-04T13:46:34.910Z,37.1
2022-08-04T14:01:35.480Z,37.7
2022-08-04T14:16:34.981Z,37.7
2022-08-04T14:31:35.031Z,38.3
2022-08-04T14:46:36.744Z,38.5
2022-08-04T15:01:35.252Z,38.8
2022-08-04T15:17:35.358Z,37.5
2022-08-04T15:32:35.352Z,38.0
2022-08-04T15:48:35.351Z,37.4
2022-08-04T16:03:52.982Z,38.0
2022-08-04T16:18:35.354Z,37.2
2022-08-04T16:34:47.781Z,38.0
2022-08-04T16:49:35.357Z,37.6
2022-08-04T17:04:35.351Z,36.0
2022-08-04T17:19:35.354Z,33.8
2022-08-04T17:34:35.359Z,32.6
2022-08-04T17:49:44.458Z,31.7
2022-08-04T18:04:35.380Z,30.9
2022-08-04T18:19:35.394Z,30.2
2022-08-04T18:34:35.449Z,29.0
2022-08-04T18:51:01.324Z,28.2
2022-08-04T19:05:37.888Z,27.9
2022-08-04T19:20:37.158Z,27.2
2022-08-04T19:34:35.517Z,26.9
2022-08-04T19:48:35.980Z,26.4
2022-08-04T20:02:35.525Z,26.1
2022-08-04T20:16:35.530Z,26.0
2022-08-04T20:30:35.531Z,25.9
2022-08-04T20:44:35.525Z,25.4
2022-08-04T20:58:35.556Z,24.9
2022-08-04T21:12:35.546Z,24.8
2022-08-04T21:26:35.537Z,24.6
2022-08-04T21:40:38.688Z,24.5
2022-08-04T21:54:35.585Z,24.3
2022-08-04T22:08:35.815Z,23.9
2022-08-04T22:22:35.832Z,23.8
2022-08-04T22:36:35.851Z,23.7
2022-08-04T22:50:35.917Z,23.4
2022-08-04T23:04:35.977Z,23.5
2022-08-04T23:18:36.009Z,23.4
2022-08-04T23:32:36.018Z,23.2
2022-08-04T23:46:35.997Z,22.9
